createdAt,value
2023-06-06T00:00:22.735Z,4.00
2023-06-06T00:02:51.086Z,4.40
2023-06-06T00:05:18.649Z,3.83
2023-06-06T00:07:47.092Z,3.33
2023-06-06T00:10:16.041Z,4.20
2023-06-06T00:12:44.944Z,3.88
2023-06-06T00:15:13.992Z,4.10
2023-06-06T00:17:42.326Z,3.88
2023-06-06T00:20:10.900Z,3.97
2023-06-06T00:22:37.828Z,4.20
2023-06-06T00:25:05.972Z,4.25
2023-06-06T00:27:34.476Z,4.47
2023-06-06T00:30:01.094Z,3.75
2023-06-06T00:32:28.482Z,3.78
2023-06-06T00:34:55.901Z,4.60
2023-06-06T00:39:48.919Z,4.22
2023-06-06T00:42:15.760Z,4.20
2023-06-06T00:44:42.305Z,4.18
2023-06-06T00:47:09.656Z,4.60
2023-06-06T00:52:04.430Z,4.15
2023-06-06T00:54:33.516Z,4.60
2023-06-06T00:57:01.436Z,4.10
2023-06-06T00:59:28.205Z,4.10
2023-06-06T01:01:54.994Z,4.82
2023-06-06T01:04:21.962Z,4.28
2023-06-06T01:06:48.435Z,4.35
2023-06-06T01:09:17.296Z,4.70
2023-06-06T01:12:28.692Z,4.45
2023-06-06T01:15:10.930Z,4.80
2023-06-06T01:17:39.863Z,4.18
2023-06-06T01:20:08.093Z,4.50
2023-06-06T01:22:37.064Z,4.85
2023-06-06T01:25:04.704Z,4.40
2023-06-06T01:27:34.363Z,4.72
2023-06-06T01:30:04.364Z,4.63
2023-06-06T01:32:46.982Z,4.40
2023-06-06T01:35:24.588Z,4.63
2023-06-06T01:38:01.614Z,4.47
2023-06-06T01:40:31.335Z,4.60
2023-06-06T01:42:58.191Z,5.10
2023-06-06T01:45:30.581Z,4.50
2023-06-06T01:47:59.149Z,4.30
2023-06-06T01:50:25.690Z,5.05
2023-06-06T01:52:56.111Z,4.80
2023-06-06T01:55:23.161Z,4.88
2023-06-06T01:57:49.996Z,5.15
2023-06-06T02:00:18.445Z,4.63
2023-06-06T02:02:45.009Z,4.57
2023-06-06T02:05:12.470Z,4.53
2023-06-06T02:10:06.150Z,4.70
2023-06-06T02:12:32.793Z,5.00
2023-06-06T02:15:00.009Z,4.70
2023-06-06T02:17:27.805Z,5.03
2023-06-06T02:19:54.273Z,4.80
2023-06-06T02:22:20.922Z,4.68
2023-06-06T02:24:47.602Z,4.72
2023-06-06T02:27:16.088Z,4.50
2023-06-06T02:29:42.537Z,4.53
2023-06-06T02:32:11.485Z,4.63
2023-06-06T02:34:38.138Z,4.80
2023-06-06T02:37:07.775Z,4.80
2023-06-06T02:39:37.379Z,4.28
2023-06-06T02:42:04.577Z,4.57
2023-06-06T02:44:32.085Z,4.47
2023-06-06T02:46:58.709Z,4.38
2023-06-06T02:49:25.215Z,4.55
2023-06-06T02:51:51.596Z,4.47
2023-06-06T02:54:18.144Z,4.35
2023-06-06T02:56:44.573Z,4.43
2023-06-06T02:59:10.940Z,5.00
2023-06-06T03:01:38.072Z,4.65
2023-06-06T03:04:05.933Z,4.70
2023-06-06T03:06:33.555Z,5.00
2023-06-06T03:09:05.013Z,4.72
2023-06-06T03:11:32.771Z,4.57
2023-06-06T03:14:00.684Z,4.60
2023-06-06T03:16:29.307Z,4.30
2023-06-06T03:18:56.350Z,4.50
2023-06-06T03:21:22.871Z,4.93
2023-06-06T03:23:49.512Z,3.95
2023-06-06T03:26:16.908Z,4.40
2023-06-06T03:31:11.621Z,4.25
2023-06-06T03:33:38.251Z,4.35
2023-06-06T03:36:08.452Z,3.95
2023-06-06T03:38:35.131Z,4.38
2023-06-06T03:41:03.492Z,4.20
2023-06-06T03:43:30.762Z,4.25
2023-06-06T03:45:57.446Z,4.47
2023-06-06T03:48:23.889Z,4.60
2023-06-06T03:50:50.638Z,4.15
2023-06-06T03:53:17.507Z,3.75
2023-06-06T03:55:45.707Z,3.92
2023-06-06T03:58:14.861Z,3.80
2023-06-06T04:00:41.403Z,4.05
2023-06-06T04:03:08.053Z,4.40
2023-06-06T04:05:36.516Z,4.80
2023-06-06T04:08:03.128Z,3.67
2023-06-06T04:10:29.652Z,3.97
2023-06-06T04:12:56.152Z,4.30
2023-06-06T04:15:22.728Z,3.78
2023-06-06T04:17:49.213Z,4.53
2023-06-06T04:20:15.636Z,3.78
2023-06-06T04:22:42.268Z,4.60
2023-06-06T04:25:08.958Z,4.20
2023-06-06T04:27:38.156Z,4.32
2023-06-06T04:30:06.933Z,4.40
2023-06-06T04:32:33.631Z,4.00
2023-06-06T04:35:00.173Z,4.72
2023-06-06T04:37:29.068Z,4.20
2023-06-06T04:39:58.052Z,3.58
2023-06-06T04:42:27.284Z,4.32
2023-06-06T04:44:54.199Z,4.75
2023-06-06T04:47:20.814Z,4.50
2023-06-06T04:49:48.777Z,4.13
2023-06-06T04:52:15.582Z,4.30
2023-06-06T04:54:42.606Z,3.90
2023-06-06T04:57:10.204Z,4.40
2023-06-06T04:59:38.355Z,4.20
2023-06-06T05:02:05.008Z,3.92
2023-06-06T05:04:32.599Z,3.85
2023-06-06T05:07:00.054Z,4.32
2023-06-06T05:11:55.687Z,4.07
2023-06-06T05:14:26.056Z,3.88
2023-06-06T05:16:53.969Z,4.57
2023-06-06T05:19:21.525Z,4.90
2023-06-06T05:21:48.558Z,4.70
2023-06-06T05:24:15.835Z,4.38
2023-06-06T05:26:45.312Z,4.82
2023-06-06T05:29:11.728Z,4.28
2023-06-06T05:31:38.714Z,4.53
2023-06-06T05:34:05.170Z,4.05
2023-06-06T05:36:31.805Z,4.10
2023-06-06T05:38:58.293Z,4.50
2023-06-06T05:41:24.801Z,4.15
2023-06-06T05:43:51.717Z,4.43
2023-06-06T05:46:18.603Z,4.78
2023-06-06T05:48:45.622Z,4.78
2023-06-06T05:51:12.404Z,5.20
2023-06-06T05:53:45.569Z,4.57
2023-06-06T05:56:13.475Z,4.60
2023-06-06T05:58:42.085Z,5.00
2023-06-06T06:01:10.241Z,5.20
2023-06-06T06:03:37.889Z,4.35
2023-06-06T06:06:06.577Z,4.43
2023-06-06T06:08:35.399Z,4.63
2023-06-06T06:11:02.508Z,4.97
2023-06-06T06:13:29.907Z,4.68
2023-06-06T06:15:56.767Z,4.50
2023-06-06T06:18:23.247Z,4.45
2023-06-06T06:20:49.673Z,4.63
2023-06-06T06:23:16.795Z,4.50
2023-06-06T06:25:44.302Z,4.18
2023-06-06T06:28:23.564Z,4.57
2023-06-06T06:30:50.607Z,4.03
2023-06-06T06:33:17.680Z,4.30
2023-06-06T06:35:45.257Z,4.68
2023-06-06T06:38:12.289Z,4.25
2023-06-06T06:40:38.816Z,4.50
2023-06-06T06:43:06.008Z,3.95
2023-06-06T06:45:32.751Z,3.88
2023-06-06T06:48:00.828Z,4.82
2023-06-06T06:50:27.493Z,4.15
2023-06-06T06:52:54.957Z,3.95
2023-06-06T06:57:52.926Z,3.95
2023-06-06T07:00:23.173Z,4.05
2023-06-06T07:02:51.206Z,4.13
2023-06-06T07:05:18.669Z,3.78
2023-06-06T07:07:50.558Z,3.67
2023-06-06T07:10:17.809Z,3.47
2023-06-06T07:12:48.935Z,3.83
2023-06-06T07:15:16.342Z,4.10
2023-06-06T07:17:52.968Z,3.75
2023-06-06T07:20:25.368Z,3.88
2023-06-06T07:22:56.563Z,3.47
2023-06-06T07:25:23.388Z,3.55
2023-06-06T07:27:49.855Z,3.95
2023-06-06T07:30:16.330Z,3.83
2023-06-06T07:32:44.718Z,3.45
2023-06-06T07:35:20.561Z,3.92
2023-06-06T07:37:47.567Z,3.22
2023-06-06T07:40:14.209Z,3.53
2023-06-06T07:42:41.919Z,3.42
2023-06-06T07:45:09.551Z,3.95
2023-06-06T07:47:36.289Z,3.60
2023-06-06T07:50:04.327Z,3.25
2023-06-06T07:52:33.509Z,3.97
2023-06-06T07:55:01.926Z,3.67
2023-06-06T07:57:28.629Z,3.53
2023-06-06T07:59:55.969Z,3.33
2023-06-06T08:02:22.750Z,4.15
2023-06-06T08:04:49.262Z,3.83
2023-06-06T08:07:16.307Z,3.67
2023-06-06T08:09:44.103Z,4.05
2023-06-06T08:12:12.304Z,3.90
2023-06-06T08:14:38.993Z,3.70
2023-06-06T08:17:07.990Z,3.80
2023-06-06T08:19:35.412Z,4.63
2023-06-06T08:22:02.910Z,3.88
2023-06-06T08:24:30.188Z,3.67
2023-06-06T08:26:57.576Z,3.42
2023-06-06T08:29:24.075Z,3.92
2023-06-06T08:31:51.682Z,4.15
2023-06-06T08:34:18.131Z,3.58
2023-06-06T08:36:45.452Z,4.20
2023-06-06T08:39:12.133Z,3.50
2023-06-06T08:41:43.018Z,3.63
2023-06-06T08:44:10.296Z,4.05
2023-06-06T08:46:38.521Z,3.55
2023-06-06T08:49:05.920Z,3.88
2023-06-06T08:51:32.746Z,4.55
2023-06-06T08:54:01.096Z,4.40
2023-06-06T08:56:28.225Z,3.72
2023-06-06T08:58:55.115Z,4.00
2023-06-06T09:01:22.361Z,4.13
2023-06-06T09:03:53.736Z,3.67
2023-06-06T09:06:23.619Z,3.80
2023-06-06T09:08:50.589Z,4.10
2023-06-06T09:13:46.237Z,3.90
2023-06-06T09:16:15.492Z,3.47
2023-06-06T09:18:42.781Z,3.78
2023-06-06T09:21:09.980Z,3.47
2023-06-06T09:23:37.258Z,3.50
2023-06-06T09:26:04.375Z,3.47
2023-06-06T09:31:28.664Z,3.70
2023-06-06T09:33:59.874Z,3.67
2023-06-06T09:36:28.507Z,3.85
2023-06-06T09:39:13.297Z,4.45
2023-06-06T09:41:47.772Z,5.30
2023-06-06T09:44:25.226Z,3.97
2023-06-06T09:47:03.204Z,4.22
2023-06-06T09:49:35.718Z,3.80
2023-06-06T09:52:04.803Z,4.13
2023-06-06T09:54:32.440Z,4.05
2023-06-06T09:56:59.337Z,3.88
2023-06-06T10:02:03.476Z,4.47
2023-06-06T10:04:30.942Z,4.70
2023-06-06T10:07:00.605Z,4.07
2023-06-06T10:09:28.167Z,3.42
2023-06-06T10:11:56.030Z,5.25
2023-06-06T10:14:24.298Z,3.38
2023-06-06T10:16:51.939Z,4.43
2023-06-06T10:19:20.647Z,3.78
2023-06-06T10:21:49.540Z,3.45
2023-06-06T10:24:17.053Z,4.20
2023-06-06T10:26:54.160Z,3.63
2023-06-06T10:29:38.696Z,4.25
2023-06-06T10:32:15.689Z,4.18
2023-06-06T10:34:48.029Z,4.13
2023-06-06T10:37:16.638Z,4.00
2023-06-06T10:39:47.541Z,4.00
2023-06-06T10:42:14.933Z,4.22
2023-06-06T10:44:47.202Z,3.75
2023-06-06T10:47:22.902Z,4.05
2023-06-06T10:50:14.349Z,3.83
2023-06-06T10:52:57.964Z,3.80
2023-06-06T10:55:24.520Z,3.53
2023-06-06T10:57:54.207Z,4.35
2023-06-06T11:00:25.626Z,3.92
2023-06-06T11:03:01.737Z,3.97
2023-06-06T11:05:29.209Z,4.30
2023-06-06T11:08:00.585Z,3.72
2023-06-06T11:10:27.030Z,3.90
2023-06-06T11:12:55.052Z,4.10
2023-06-06T11:15:30.217Z,3.78
2023-06-06T11:18:06.190Z,3.85
2023-06-06T11:20:42.880Z,3.75
2023-06-06T11:23:12.200Z,3.35
2023-06-06T11:25:38.837Z,3.38
2023-06-06T11:28:10.199Z,3.58
2023-06-06T11:30:40.923Z,3.95
2023-06-06T11:33:13.331Z,3.58
2023-06-06T11:35:41.104Z,3.55
2023-06-06T11:38:07.809Z,3.70
2023-06-06T11:40:34.428Z,3.88
2023-06-06T11:43:01.520Z,3.75
2023-06-06T11:45:28.382Z,4.05
2023-06-06T11:48:06.752Z,3.58
2023-06-06T11:50:41.226Z,4.35
2023-06-06T11:53:07.919Z,3.92
2023-06-06T11:55:38.545Z,3.58
2023-06-06T11:58:05.616Z,3.53
2023-06-06T12:00:32.186Z,3.38
2023-06-06T12:03:00.748Z,3.42
2023-06-06T12:05:27.701Z,3.17
2023-06-06T12:07:58.961Z,3.28
2023-06-06T12:10:32.712Z,3.40
2023-06-06T12:13:00.548Z,3.30
2023-06-06T12:15:49.288Z,3.35
2023-06-06T12:18:17.553Z,3.50
2023-06-06T12:20:44.845Z,3.53
2023-06-06T12:23:11.320Z,2.95
2023-06-06T12:25:37.780Z,2.92
2023-06-06T12:28:11.685Z,2.88
2023-06-06T12:30:40.208Z,3.40
2023-06-06T12:33:07.970Z,3.35
2023-06-06T12:35:34.552Z,3.35
2023-06-06T12:38:02.574Z,2.97
2023-06-06T12:40:35.222Z,3.13
2023-06-06T12:43:07.572Z,3.30
2023-06-06T12:45:38.989Z,3.33
2023-06-06T12:48:06.557Z,2.78
2023-06-06T12:50:33.164Z,2.92
2023-06-06T12:52:59.905Z,3.10
2023-06-06T12:55:26.562Z,3.10
2023-06-06T12:57:53.294Z,2.90
2023-06-06T13:02:47.897Z,2.75
2023-06-06T13:05:14.850Z,3.10
2023-06-06T13:07:41.332Z,2.67
2023-06-06T13:10:09.969Z,3.15
2023-06-06T13:12:41.345Z,2.42
2023-06-06T13:15:11.478Z,2.80
2023-06-06T13:17:39.493Z,3.53
2023-06-06T13:20:12.822Z,2.70
2023-06-06T13:22:41.279Z,2.42
2023-06-06T13:25:09.220Z,2.50
2023-06-06T13:27:35.676Z,2.88
2023-06-06T13:30:02.147Z,3.35
2023-06-06T13:32:28.741Z,2.83
2023-06-06T13:34:55.446Z,2.65
2023-06-06T13:37:22.778Z,3.10
2023-06-06T13:39:49.414Z,2.63
2023-06-06T13:42:16.232Z,2.83
2023-06-06T13:44:42.722Z,2.83
2023-06-06T13:47:09.205Z,3.03
2023-06-06T13:49:35.625Z,3.90
2023-06-06T13:52:02.009Z,3.15
2023-06-06T13:54:28.506Z,3.38
2023-06-06T13:56:55.859Z,3.50
2023-06-06T13:59:22.792Z,3.25
2023-06-06T14:04:19.645Z,4.35
2023-06-06T14:06:46.325Z,3.72
2023-06-06T14:11:45.579Z,3.78
2023-06-06T14:14:12.619Z,3.28
2023-06-06T14:16:39.253Z,3.15
2023-06-06T14:19:06.002Z,3.53
2023-06-06T14:21:38.524Z,3.97
2023-06-06T14:24:06.035Z,4.05
2023-06-06T14:26:32.467Z,3.95
2023-06-06T14:28:58.834Z,3.60
2023-06-06T14:31:25.918Z,3.85
2023-06-06T14:33:52.568Z,3.95
2023-06-06T14:36:19.473Z,3.92
2023-06-06T14:38:46.247Z,3.85
2023-06-06T14:41:12.745Z,4.25
2023-06-06T14:43:39.246Z,3.95
2023-06-06T14:46:05.811Z,3.80
2023-06-06T14:48:32.591Z,3.78
2023-06-06T14:53:25.541Z,3.40
2023-06-06T14:56:03.057Z,4.25
2023-06-06T14:58:33.541Z,3.80
2023-06-06T15:01:00.027Z,4.13
2023-06-06T15:03:27.509Z,3.83
2023-06-06T15:05:54.049Z,4.22
2023-06-06T15:08:20.765Z,4.20
2023-06-06T15:10:47.189Z,4.00
2023-06-06T15:13:13.589Z,4.20
2023-06-06T15:15:40.928Z,4.53
2023-06-06T15:18:07.589Z,3.85
2023-06-06T15:20:34.359Z,4.95
2023-06-06T15:23:01.171Z,4.50
2023-06-06T15:25:27.782Z,4.53
2023-06-06T15:27:54.196Z,4.28
2023-06-06T15:30:20.870Z,4.22
2023-06-06T15:32:49.757Z,4.88
2023-06-06T15:35:16.586Z,3.95
2023-06-06T15:37:43.058Z,4.25
2023-06-06T15:40:10.277Z,4.18
2023-06-06T15:42:36.882Z,4.20
2023-06-06T15:45:04.185Z,4.28
2023-06-06T15:47:31.200Z,4.50
2023-06-06T15:49:57.626Z,4.70
2023-06-06T15:52:24.324Z,4.85
2023-06-06T15:57:17.131Z,5.38
2023-06-06T15:59:43.502Z,4.88
2023-06-06T16:02:11.336Z,4.93
2023-06-06T16:04:40.260Z,4.07
2023-06-06T16:07:06.812Z,5.75
2023-06-06T16:09:33.254Z,5.25
2023-06-06T16:11:59.807Z,4.15
2023-06-06T16:14:26.386Z,4.60
2023-06-06T16:16:53.487Z,4.25
2023-06-06T16:19:19.971Z,4.80
2023-06-06T16:21:47.746Z,5.97
2023-06-06T16:24:14.243Z,4.88
2023-06-06T16:26:41.462Z,4.38
2023-06-06T16:29:07.994Z,4.38
2023-06-06T16:31:34.712Z,4.90
2023-06-06T16:36:27.838Z,4.40
2023-06-06T16:38:54.240Z,4.45
2023-06-06T16:41:22.988Z,4.47
2023-06-06T16:43:49.489Z,4.93
2023-06-06T16:46:16.172Z,4.88
2023-06-06T16:48:42.697Z,5.40
2023-06-06T16:51:09.053Z,4.57
2023-06-06T16:53:35.567Z,4.07
2023-06-06T16:56:02.063Z,4.43
2023-06-06T16:58:28.487Z,4.57
2023-06-06T17:00:55.014Z,3.88
2023-06-06T17:03:21.669Z,3.92
2023-06-06T17:05:50.078Z,3.95
2023-06-06T17:08:18.198Z,4.03
2023-06-06T17:10:44.644Z,4.20
2023-06-06T17:13:11.099Z,4.05
2023-06-06T17:15:37.692Z,4.00
2023-06-06T17:18:04.296Z,3.67
2023-06-06T17:20:30.808Z,4.40
2023-06-06T17:22:57.356Z,3.70
2023-06-06T17:25:28.686Z,4.03
2023-06-06T17:28:01.062Z,3.70
2023-06-06T17:30:28.199Z,3.53
2023-06-06T17:32:54.673Z,4.15
2023-06-06T17:35:22.473Z,3.85
2023-06-06T17:37:48.863Z,3.38
2023-06-06T17:40:15.467Z,4.07
2023-06-06T17:42:41.882Z,3.70
2023-06-06T17:45:09.380Z,3.55
2023-06-06T17:47:35.921Z,4.10
2023-06-06T17:50:03.114Z,3.95
2023-06-06T17:52:29.592Z,4.07
2023-06-06T17:54:56.243Z,3.78
2023-06-06T17:57:22.723Z,3.95
2023-06-06T17:59:49.197Z,4.03
2023-06-06T18:02:15.613Z,4.10
2023-06-06T18:04:42.332Z,3.53
2023-06-06T18:07:09.067Z,3.63
2023-06-06T18:09:35.477Z,3.88
2023-06-06T18:12:02.935Z,3.30
2023-06-06T18:14:29.563Z,3.78
2023-06-06T18:16:57.111Z,3.78
2023-06-06T18:19:23.526Z,3.97
2023-06-06T18:21:49.979Z,3.67
2023-06-06T18:24:16.523Z,3.25
2023-06-06T18:26:43.014Z,4.22
2023-06-06T18:29:09.770Z,4.18
2023-06-06T18:31:38.736Z,4.07
2023-06-06T18:34:06.965Z,3.40
2023-06-06T18:36:34.219Z,3.13
2023-06-06T18:39:00.871Z,3.70
2023-06-06T18:41:27.826Z,3.80
2023-06-06T18:46:21.260Z,3.33
2023-06-06T18:48:48.590Z,3.33
2023-06-06T18:51:15.174Z,4.22
2023-06-06T18:53:42.040Z,3.63
2023-06-06T18:56:08.504Z,4.07
2023-06-06T18:58:34.992Z,3.58
2023-06-06T19:01:03.708Z,3.75
2023-06-06T19:03:30.282Z,3.63
2023-06-06T19:05:56.770Z,3.72
2023-06-06T19:08:23.313Z,4.20
2023-06-06T19:10:49.692Z,3.85
2023-06-06T19:13:16.171Z,3.50
2023-06-06T19:15:42.669Z,3.72
2023-06-06T19:18:22.937Z,3.22
2023-06-06T19:20:55.544Z,3.35
2023-06-06T19:23:22.132Z,3.35
2023-06-06T19:25:48.672Z,3.38
2023-06-06T19:28:15.152Z,3.50
2023-06-06T19:30:41.661Z,3.95
2023-06-06T19:33:09.911Z,3.90
2023-06-06T19:35:37.968Z,3.67
2023-06-06T19:38:04.397Z,3.42
2023-06-06T19:40:31.527Z,3.95
2023-06-06T19:42:57.922Z,3.40
2023-06-06T19:45:24.390Z,3.55
2023-06-06T19:47:51.055Z,3.67
2023-06-06T19:50:17.637Z,4.45
2023-06-06T19:52:44.318Z,3.50
2023-06-06T19:55:12.466Z,3.55
2023-06-06T19:57:42.621Z,3.85
2023-06-06T20:00:10.651Z,4.00
2023-06-06T20:02:37.142Z,4.07
2023-06-06T20:05:05.150Z,3.35
2023-06-06T20:07:31.612Z,4.07
2023-06-06T20:09:58.074Z,3.53
2023-06-06T20:12:24.566Z,4.13
2023-06-06T20:14:52.069Z,3.90
2023-06-06T20:17:18.563Z,4.47
2023-06-06T20:19:44.991Z,3.60
2023-06-06T20:22:11.725Z,3.55
2023-06-06T20:24:38.486Z,3.97
2023-06-06T20:27:13.370Z,3.50
2023-06-06T20:29:39.888Z,3.45
2023-06-06T20:32:06.894Z,3.45
2023-06-06T20:34:33.351Z,3.97
2023-06-06T20:37:01.871Z,3.45
2023-06-06T20:39:40.538Z,3.58
2023-06-06T20:42:07.732Z,5.03
2023-06-06T20:47:03.082Z,3.70
2023-06-06T20:49:34.948Z,4.05
2023-06-06T20:52:05.629Z,4.18
2023-06-06T20:54:32.196Z,3.83
2023-06-06T20:56:58.689Z,3.80
2023-06-06T20:59:26.745Z,4.10
2023-06-06T21:01:53.968Z,3.95
2023-06-06T21:04:21.025Z,4.30
2023-06-06T21:06:47.472Z,3.97
2023-06-06T21:09:14.375Z,4.25
2023-06-06T21:11:40.905Z,3.35
2023-06-06T21:14:07.525Z,4.00
2023-06-06T21:16:34.180Z,3.88
2023-06-06T21:19:00.629Z,3.95
2023-06-06T21:21:27.035Z,3.95
2023-06-06T21:23:53.519Z,3.38
2023-06-06T21:26:20.025Z,3.72
2023-06-06T21:28:46.748Z,3.63
2023-06-06T21:31:13.312Z,3.78
2023-06-06T21:33:39.775Z,3.78
2023-06-06T21:36:06.494Z,3.70
2023-06-06T21:38:32.901Z,3.70
2023-06-06T21:40:59.314Z,3.55
2023-06-06T21:43:25.725Z,3.60
2023-06-06T21:45:52.180Z,3.38
2023-06-06T21:48:18.531Z,3.72
2023-06-06T21:50:44.950Z,4.55
2023-06-06T21:53:11.523Z,3.70
2023-06-06T21:55:38.113Z,4.90
2023-06-06T21:58:04.538Z,4.30
2023-06-06T22:00:31.041Z,3.80
2023-06-06T22:02:57.733Z,4.00
2023-06-06T22:05:24.390Z,4.30
2023-06-06T22:07:51.027Z,4.57
2023-06-06T22:10:17.759Z,4.00
2023-06-06T22:12:44.208Z,3.80
2023-06-06T22:15:11.228Z,3.65
2023-06-06T22:17:37.745Z,5.18
2023-06-06T22:20:05.779Z,3.92
2023-06-06T22:22:32.535Z,3.83
2023-06-06T22:24:59.146Z,4.55
2023-06-06T22:27:25.734Z,3.80
2023-06-06T22:29:52.164Z,4.25
2023-06-06T22:32:18.662Z,3.80
2023-06-06T22:34:45.219Z,3.78
2023-06-06T22:37:11.834Z,3.63
2023-06-06T22:39:38.302Z,3.70
2023-06-06T22:42:04.893Z,4.05
2023-06-06T22:44:31.432Z,3.40
2023-06-06T22:46:57.952Z,3.90
2023-06-06T22:49:24.357Z,4.13
2023-06-06T22:51:51.080Z,4.18
2023-06-06T22:54:17.747Z,3.85
2023-06-06T22:56:44.249Z,4.40
2023-06-06T22:59:10.739Z,4.13
2023-06-06T23:01:37.259Z,4.13
2023-06-06T23:04:03.864Z,4.53
2023-06-06T23:06:30.300Z,4.15
2023-06-06T23:08:57.695Z,4.55
2023-06-06T23:11:24.432Z,4.68
2023-06-06T23:13:50.866Z,3.70
2023-06-06T23:16:17.725Z,4.25
2023-06-06T23:18:44.512Z,4.40
2023-06-06T23:21:10.951Z,4.18
2023-06-06T23:23:37.486Z,4.15
2023-06-06T23:26:04.106Z,4.00
2023-06-06T23:28:30.707Z,4.15
2023-06-06T23:30:57.540Z,4.50
2023-06-06T23:33:25.007Z,4.75
2023-06-06T23:35:51.506Z,4.90
2023-06-06T23:38:18.256Z,4.38
2023-06-06T23:40:44.711Z,4.53
2023-06-06T23:43:13.028Z,4.65
2023-06-06T23:45:39.608Z,4.43
2023-06-06T23:48:06.297Z,4.47
2023-06-06T23:50:32.757Z,4.50
2023-06-06T23:52:59.121Z,4.78
2023-06-06T23:55:26.296Z,4.80
2023-06-06T23:57:53.003Z,4.82
